Time;durP1;ratioP1;P1;durP2;ratioP2;P2;SDS_P1;SDS_P2;PMS_P1;PMS_P2;Temp;Humidity;BMP_temperature;BMP_pressure;BME280_temperature;BME280_humidity;BME280_pressure;Samples;Min_cycle;Max_cycle;Signal;HPM_P1;HPM_P2
2022/06/27 00:02:09;;;;;;;3.80;3.17;;;15.90;99.90;;;;;;5015575;28;20026;-72
2022/06/27 00:04:35;;;;;;;8.75;3.60;;;15.80;99.90;;;;;;5014991;28;20054;-72
2022/06/27 00:07:00;;;;;;;5.43;3.00;;;15.80;99.90;;;;;;5014683;28;20022;-72
2022/06/27 00:09:26;;;;;;;3.60;2.95;;;15.80;99.90;;;;;;5014468;28;20033;-72
2022/06/27 00:11:52;;;;;;;6.82;3.80;;;15.80;99.90;;;;;;5014232;28;20073;-72
2022/06/27 00:14:17;;;;;;;5.47;3.40;;;15.80;99.90;;;;;;5013897;28;20018;-72
2022/06/27 00:16:43;;;;;;;4.88;3.67;;;15.80;99.90;;;;;;4996582;28;20068;-72
2022/06/27 00:19:08;;;;;;;5.28;2.97;;;15.70;99.90;;;;;;5014296;28;20084;-72
2022/06/27 00:21:34;;;;;;;9.52;3.72;;;15.80;99.90;;;;;;5014225;28;20068;-72
2022/06/27 00:23:59;;;;;;;9.85;3.45;;;15.80;99.90;;;;;;5013935;28;20022;-72
2022/06/27 00:26:26;;;;;;;11.18;3.65;;;15.80;99.90;;;;;;5013667;28;20030;-72
2022/06/27 00:28:51;;;;;;;6.30;3.70;;;15.80;99.90;;;;;;5013992;28;20089;-72
2022/06/27 00:31:17;;;;;;;6.90;3.80;;;15.90;99.90;;;;;;5013963;28;20018;-72
2022/06/27 00:33:43;;;;;;;8.32;4.07;;;15.90;99.90;;;;;;5013899;28;20076;-72
2022/06/27 00:36:08;;;;;;;12.70;5.40;;;15.90;99.90;;;;;;5014033;28;20447;-72
2022/06/27 00:38:34;;;;;;;8.45;5.28;;;15.90;99.90;;;;;;5014180;28;20030;-72
2022/06/27 00:40:59;;;;;;;8.40;4.88;;;16.00;99.90;;;;;;5014871;28;20109;-72
2022/06/27 00:43:25;;;;;;;7.93;5.13;;;16.00;99.90;;;;;;5015004;28;20022;-72
2022/06/27 00:45:50;;;;;;;8.40;5.07;;;16.00;99.90;;;;;;5014526;28;20030;-72
2022/06/27 00:48:16;;;;;;;9.05;5.85;;;16.00;99.90;;;;;;5013770;28;20026;-70
2022/06/27 00:50:42;;;;;;;6.95;5.25;;;16.10;99.90;;;;;;5013719;28;20030;-70
2022/06/27 00:53:10;;;;;;;18.08;5.82;;;16.00;99.90;;;;;;4998561;28;20190;-70
2022/06/27 00:55:35;;;;;;;11.07;6.10;;;16.00;99.90;;;;;;5017166;28;20045;-70
2022/06/27 00:58:01;;;;;;;9.90;5.50;;;16.10;99.90;;;;;;5017061;28;20390;-70
2022/06/27 01:00:27;;;;;;;9.07;4.80;;;16.00;99.90;;;;;;5017139;28;20026;-70
2022/06/27 01:02:53;;;;;;;13.02;6.03;;;16.00;99.90;;;;;;5016953;28;20037;-70
2022/06/27 01:05:19;;;;;;;10.07;5.72;;;16.10;99.90;;;;;;5017080;28;20422;-70
2022/06/27 01:07:45;;;;;;;9.60;5.55;;;16.00;99.90;;;;;;5016756;28;20537;-70
2022/06/27 01:10:10;;;;;;;10.10;6.22;;;16.00;99.90;;;;;;5016809;28;20108;-70
2022/06/27 01:12:40;;;;;;;10.80;5.53;;;16.00;99.90;;;;;;5016988;28;20022;-70
2022/06/27 01:15:06;;;;;;;6.45;4.60;;;16.00;99.90;;;;;;5016894;28;20389;-70
2022/06/27 01:17:32;;;;;;;7.80;4.65;;;15.90;99.90;;;;;;5016948;28;20179;-70
2022/06/27 01:19:58;;;;;;;8.88;5.63;;;15.90;99.90;;;;;;5016596;28;20101;-70
2022/06/27 01:22:23;;;;;;;12.00;5.25;;;16.00;99.90;;;;;;5016803;28;20053;-70
2022/06/27 01:24:49;;;;;;;10.07;5.85;;;16.00;99.90;;;;;;5016868;28;20034;-70
2022/06/27 01:27:15;;;;;;;10.88;5.20;;;16.00;99.90;;;;;;5016698;28;20037;-70
2022/06/27 01:29:40;;;;;;;14.18;5.43;;;15.90;99.90;;;;;;5016594;28;20430;-70
2022/06/27 01:32:06;;;;;;;9.23;5.53;;;16.00;99.90;;;;;;4998989;28;20478;-70
2022/06/27 01:34:32;;;;;;;20.42;5.75;;;15.90;99.90;;;;;;5016364;28;20026;-70
2022/06/27 01:36:58;;;;;;;9.38;5.57;;;15.80;99.90;;;;;;5016588;28;20473;-70
2022/06/27 01:39:25;;;;;;;8.23;5.13;;;15.90;99.90;;;;;;5016752;28;20474;-70
2022/06/27 01:41:55;;;;;;;10.38;5.40;;;15.80;99.90;;;;;;5016482;28;20113;-69
2022/06/27 01:44:24;;;;;;;14.13;5.90;;;15.90;99.90;;;;;;5016398;28;20062;-70
2022/06/27 01:47:00;;;;;;;15.77;6.47;;;15.90;99.90;;;;;;5016020;28;20098;-70
2022/06/27 01:49:30;;;;;;;12.43;5.63;;;15.80;99.90;;;;;;5016072;28;20457;-70
2022/06/27 01:51:57;;;;;;;11.68;6.55;;;15.70;99.90;;;;;;5015779;28;20057;-71
2022/06/27 01:54:24;;;;;;;16.00;6.97;;;15.70;99.90;;;;;;5015884;28;20034;-70
2022/06/27 01:56:51;;;;;;;21.10;6.22;;;15.60;99.90;;;;;;5015868;28;20037;-70
2022/06/27 01:59:20;;;;;;;9.32;6.10;;;15.60;99.90;;;;;;5015884;28;20053;-70
2022/06/27 02:01:46;;;;;;;9.93;5.60;;;15.50;99.90;;;;;;5015898;28;20065;-70
2022/06/27 02:04:13;;;;;;;15.38;6.50;;;15.50;99.90;;;;;;5015212;28;20036;-70
2022/06/27 02:06:40;;;;;;;8.52;5.63;;;15.50;99.90;;;;;;5015671;28;20390;-70
2022/06/27 02:09:07;;;;;;;8.75;5.55;;;15.40;99.90;;;;;;5015974;28;20429;-70
2022/06/27 02:11:34;;;;;;;12.88;6.57;;;15.40;99.90;;;;;;4998080;28;20026;-70
2022/06/27 02:14:00;;;;;;;11.73;5.55;;;15.40;99.90;;;;;;5015830;28;20026;-69
2022/06/27 02:16:26;;;;;;;9.18;5.90;;;15.30;99.90;;;;;;5015581;28;20039;-69
2022/06/27 02:18:52;;;;;;;14.55;6.20;;;15.20;99.90;;;;;;5015527;28;20486;-69
2022/06/27 02:21:20;;;;;;;13.23;7.28;;;15.10;99.90;;;;;;5015502;28;20478;-69
2022/06/27 02:23:46;;;;;;;13.32;6.28;;;15.00;99.90;;;;;;5015320;28;20470;-69
2022/06/27 02:26:13;;;;;;;13.07;6.45;;;14.90;99.90;;;;;;5015597;28;20367;-70
2022/06/27 02:28:39;;;;;;;16.85;6.53;;;15.00;99.90;;;;;;5015601;28;20022;-69
2022/06/27 02:31:07;;;;;;;16.48;5.65;;;14.90;99.90;;;;;;5015117;28;20104;-69
2022/06/27 02:33:38;;;;;;;10.85;6.43;;;14.80;99.90;;;;;;5015066;28;20061;-70
2022/06/27 02:36:06;;;;;;;15.65;6.18;;;14.80;99.90;;;;;;5015459;28;20068;-69
2022/06/27 02:38:32;;;;;;;15.20;7.32;;;14.70;99.90;;;;;;5014990;28;20069;-69
2022/06/27 02:41:01;;;;;;;16.15;7.15;;;14.70;99.90;;;;;;5015343;28;20382;-69
2022/06/27 02:43:31;;;;;;;15.60;6.45;;;14.70;99.90;;;;;;5015139;28;20018;-69
2022/06/27 02:45:57;;;;;;;14.27;6.85;;;14.70;99.90;;;;;;5015051;28;20486;-69
2022/06/27 02:48:24;;;;;;;10.93;5.90;;;14.60;99.90;;;;;;5014812;28;20109;-69
2022/06/27 02:50:56;;;;;;;24.63;5.82;;;14.60;99.90;;;;;;5015044;28;20022;-69
2022/06/27 02:53:31;;;;;;;9.57;4.05;;;14.60;99.90;;;;;;5015258;28;20118;-69
2022/06/27 02:56:01;;;;;;;11.50;4.25;;;14.50;99.90;;;;;;5015265;28;20056;-69
2022/06/27 02:58:35;;;;;;;6.65;3.88;;;14.40;99.90;;;;;;5014884;28;20099;-69
2022/06/27 03:01:02;;;;;;;12.82;4.47;;;14.30;99.90;;;;;;5014792;28;20026;-69
2022/06/27 03:03:31;;;;;;;12.65;4.05;;;14.20;99.90;;;;;;5015154;28;20034;-69
2022/06/27 03:06:06;;;;;;;19.58;4.35;;;14.10;99.90;;;;;;5014649;28;20113;-69
2022/06/27 03:08:41;;;;;;;12.35;3.45;;;14.00;99.90;;;;;;5015125;28;20030;-69
2022/06/27 03:11:08;;;;;;;12.68;4.07;;;13.90;99.90;;;;;;5014977;28;20043;-69
2022/06/27 03:13:34;;;;;;;7.47;4.18;;;13.90;99.90;;;;;;5014643;28;20018;-69
2022/06/27 03:16:01;;;;;;;7.35;3.72;;;13.80;99.90;;;;;;5014558;28;20030;-70
2022/06/27 03:18:26;;;;;;;5.53;3.50;;;13.80;99.90;;;;;;5015129;28;20516;-69
2022/06/27 03:20:52;;;;;;;10.77;3.42;;;13.80;99.90;;;;;;5014485;28;20034;-69
2022/06/27 03:23:18;;;;;;;8.00;3.53;;;13.80;99.90;;;;;;5014466;28;20355;-69
2022/06/27 03:25:44;;;;;;;5.30;2.55;;;13.80;99.90;;;;;;5014434;28;20025;-69
2022/06/27 03:28:10;;;;;;;8.65;3.28;;;13.80;99.90;;;;;;5014299;28;20061;-70
2022/06/27 03:30:36;;;;;;;7.45;3.10;;;13.70;99.90;;;;;;5014486;28;20422;-70
2022/06/27 03:33:02;;;;;;;4.22;2.92;;;13.60;99.90;;;;;;5014305;28;20022;-70
2022/06/27 03:35:27;;;;;;;9.20;3.55;;;13.60;99.90;;;;;;5014968;28;20052;-70
2022/06/27 03:37:53;;;;;;;5.78;3.35;;;13.60;99.90;;;;;;5014171;28;20080;-69
2022/06/27 03:40:18;;;;;;;12.02;3.65;;;13.60;99.90;;;;;;5014360;28;20034;-70
2022/06/27 03:42:44;;;;;;;4.60;3.50;;;13.60;99.90;;;;;;5014191;28;20026;-69
2022/06/27 03:45:10;;;;;;;8.48;3.65;;;13.60;99.90;;;;;;5014170;28;20025;-69
2022/06/27 03:47:51;;;;;;;10.10;3.72;;;13.60;99.90;;;;;;5013860;28;20033;-69
2022/06/27 03:50:18;;;;;;;4.32;2.92;;;13.50;99.90;;;;;;5014021;28;20496;-69
2022/06/27 03:52:43;;;;;;;4.57;2.97;;;13.50;99.90;;;;;;5014053;28;20112;-69
2022/06/27 03:55:10;;;;;;;11.60;3.35;;;13.50;99.90;;;;;;5014010;28;20092;-69
2022/06/27 03:57:46;;;;;;;5.95;3.15;;;13.50;99.90;;;;;;5013994;28;20561;-69
2022/06/27 04:00:12;;;;;;;3.42;2.65;;;13.50;99.90;;;;;;5014616;28;20120;-69
2022/06/27 04:02:37;;;;;;;7.15;3.10;;;13.50;99.90;;;;;;5014458;28;20026;-69
2022/06/27 04:05:03;;;;;;;5.72;3.22;;;13.50;99.90;;;;;;5013948;28;20542;-69
2022/06/27 04:07:29;;;;;;;7.75;3.15;;;13.50;99.90;;;;;;5013958;28;20038;-70
2022/06/27 04:09:56;;;;;;;5.15;3.20;;;13.50;99.90;;;;;;5009666;28;20437;-70
2022/06/27 04:12:22;;;;;;;5.05;2.78;;;13.50;99.90;;;;;;4994580;28;20034;-70
2022/06/27 04:14:47;;;;;;;5.72;3.13;;;13.50;99.90;;;;;;4994074;28;20069;-70
2022/06/27 04:17:13;;;;;;;6.60;3.80;;;13.50;99.90;;;;;;4994382;28;20030;-70
2022/06/27 04:19:38;;;;;;;7.13;3.35;;;13.50;99.90;;;;;;4994154;28;20049;-70
2022/06/27 04:22:04;;;;;;;10.27;2.80;;;13.60;99.90;;;;;;4994150;28;20026;-70
2022/06/27 04:24:30;;;;;;;8.15;3.65;;;13.60;99.90;;;;;;4993992;28;20041;-70
2022/06/27 04:26:57;;;;;;;5.47;2.40;;;13.60;99.90;;;;;;4994893;28;20026;-70
2022/06/27 04:29:23;;;;;;;6.78;2.17;;;13.60;99.90;;;;;;4998328;28;20033;-70
2022/06/27 04:31:49;;;;;;;4.63;2.42;;;13.70;99.90;;;;;;4998209;28;20023;-70
2022/06/27 04:34:15;;;;;;;7.00;2.70;;;13.70;99.90;;;;;;4998007;28;20049;-70
2022/06/27 04:36:41;;;;;;;7.20;2.90;;;13.70;99.90;;;;;;4997818;28;20061;-70
2022/06/27 04:39:08;;;;;;;5.60;2.88;;;13.70;99.90;;;;;;4997838;28;20022;-70
2022/06/27 04:41:34;;;;;;;8.25;3.42;;;13.70;99.90;;;;;;5006767;28;20028;-71
2022/06/27 04:44:00;;;;;;;8.85;3.70;;;13.80;99.90;;;;;;5017557;28;20101;-70
2022/06/27 04:46:25;;;;;;;6.05;2.92;;;13.80;99.90;;;;;;5017287;28;20133;-71
2022/06/27 04:48:51;;;;;;;4.10;2.75;;;13.80;99.90;;;;;;5017234;28;20478;-70
2022/06/27 04:51:17;;;;;;;3.63;2.58;;;13.80;99.90;;;;;;5017328;28;20033;-70
2022/06/27 04:53:45;;;;;;;5.60;3.20;;;13.80;99.90;;;;;;5017177;28;20032;-71
2022/06/27 04:56:11;;;;;;;5.70;2.75;;;13.70;99.90;;;;;;5016824;28;20025;-70
2022/06/27 04:58:37;;;;;;;8.73;3.50;;;13.70;99.90;;;;;;5017271;28;20102;-70
2022/06/27 05:01:03;;;;;;;4.75;3.15;;;13.70;99.90;;;;;;5017061;28;20054;-70
2022/06/27 05:03:28;;;;;;;6.93;3.33;;;13.80;99.90;;;;;;5016969;28;20431;-70
2022/06/27 05:05:54;;;;;;;6.38;3.13;;;13.70;99.90;;;;;;5016896;28;20022;-70
2022/06/27 05:08:20;;;;;;;4.97;3.53;;;13.80;99.90;;;;;;5016924;28;20056;-70
2022/06/27 05:10:47;;;;;;;6.57;3.83;;;13.70;99.90;;;;;;5017534;28;20026;-70
2022/06/27 05:13:13;;;;;;;6.57;3.90;;;13.80;99.90;;;;;;5016868;28;20025;-70
2022/06/27 05:15:39;;;;;;;4.70;3.63;;;13.80;99.90;;;;;;5017073;28;20026;-69
2022/06/27 05:18:05;;;;;;;4.28;3.85;;;13.90;99.90;;;;;;5016730;28;20075;-70
2022/06/27 05:20:31;;;;;;;11.02;4.75;;;14.00;99.90;;;;;;5016577;28;20528;-70
2022/06/27 05:23:00;;;;;;;6.28;4.38;;;14.00;99.90;;;;;;5016746;28;20057;-70
2022/06/27 05:25:26;;;;;;;5.25;4.20;;;14.10;99.90;;;;;;5016596;28;20018;-70
2022/06/27 05:27:51;;;;;;;7.32;4.38;;;14.00;99.90;;;;;;5016459;28;20048;-70
2022/06/27 05:30:17;;;;;;;7.97;3.67;;;14.00;99.90;;;;;;5016568;28;20018;-70
2022/06/27 05:32:42;;;;;;;5.80;4.30;;;14.00;99.90;;;;;;5016593;28;20030;-70
2022/06/27 05:35:08;;;;;;;7.70;4.50;;;14.00;99.90;;;;;;5016982;28;20030;-70
2022/06/27 05:37:35;;;;;;;5.93;4.20;;;14.10;99.90;;;;;;5016065;28;20040;-70
2022/06/27 05:40:03;;;;;;;4.72;3.88;;;14.20;99.90;;;;;;5015302;28;20434;-70
2022/06/27 05:42:28;;;;;;;5.55;4.15;;;14.20;99.90;;;;;;5016671;28;20060;-70
2022/06/27 05:44:55;;;;;;;6.38;4.03;;;14.20;99.90;;;;;;5016484;28;20441;-70
2022/06/27 05:47:21;;;;;;;4.78;3.55;;;14.30;99.90;;;;;;5016028;28;20084;-70
2022/06/27 05:49:48;;;;;;;3.88;3.30;;;14.20;99.90;;;;;;5016000;28;20022;-70
2022/06/27 05:52:14;;;;;;;7.15;3.95;;;14.20;99.90;;;;;;5016802;28;20018;-70
2022/06/27 05:54:40;;;;;;;6.47;4.63;;;14.20;99.90;;;;;;5016145;28;20029;-70
2022/06/27 05:57:06;;;;;;;6.60;4.00;;;14.10;99.90;;;;;;5016309;28;20022;-70
2022/06/27 05:59:33;;;;;;;8.43;4.25;;;14.10;99.90;;;;;;5016064;28;20029;-70
2022/06/27 06:02:00;;;;;;;5.03;3.75;;;14.20;99.90;;;;;;5016385;28;20022;-70
2022/06/27 06:04:26;;;;;;;5.80;3.78;;;14.10;99.90;;;;;;5015869;28;20031;-70
2022/06/27 06:06:52;;;;;;;8.65;4.03;;;14.20;99.90;;;;;;5015794;28;20068;-70
2022/06/27 06:09:18;;;;;;;8.80;4.10;;;14.20;99.90;;;;;;5015810;28;20041;-71
2022/06/27 06:11:48;;;;;;;8.18;4.45;;;14.20;99.90;;;;;;5015639;28;20426;-70
2022/06/27 06:14:15;;;;;;;5.05;3.90;;;14.20;99.90;;;;;;5015586;28;20072;-70
2022/06/27 06:16:41;;;;;;;7.93;4.10;;;14.40;99.90;;;;;;5015594;28;20100;-70
2022/06/27 06:19:07;;;;;;;7.13;4.13;;;14.30;99.90;;;;;;5015507;28;20467;-70
2022/06/27 06:21:32;;;;;;;9.85;4.57;;;14.40;99.90;;;;;;5016117;28;20084;-70
2022/06/27 06:23:58;;;;;;;7.82;4.60;;;14.30;99.90;;;;;;5016302;28;20425;-70
2022/06/27 06:26:24;;;;;;;5.13;3.90;;;14.30;99.90;;;;;;5015314;28;20474;-70
2022/06/27 06:28:50;;;;;;;5.18;4.28;;;14.30;99.90;;;;;;5015632;28;20388;-70
2022/06/27 06:31:22;;;;;;;6.60;3.83;;;14.30;99.90;;;;;;5015577;28;20486;-70
2022/06/27 06:33:53;;;;;;;5.10;3.92;;;14.40;99.90;;;;;;5015327;28;20030;-69
2022/06/27 06:36:21;;;;;;;5.57;4.47;;;14.30;99.90;;;;;;5015156;28;20162;-69
2022/06/27 06:38:47;;;;;;;12.50;4.10;;;14.30;99.90;;;;;;5014958;28;20049;-70
2022/06/27 06:41:14;;;;;;;6.78;3.53;;;14.40;99.90;;;;;;5014704;28;20363;-70
2022/06/27 06:43:40;;;;;;;4.32;3.55;;;14.50;99.90;;;;;;5015007;28;20429;-69
2022/06/27 06:46:05;;;;;;;6.32;4.05;;;14.50;99.90;;;;;;5014943;28;20104;-69
2022/06/27 06:48:32;;;;;;;5.20;3.90;;;14.60;99.90;;;;;;5015568;28;20073;-72
2022/06/27 06:50:58;;;;;;;6.53;3.60;;;14.60;99.90;;;;;;5014620;28;20018;-72
2022/06/27 06:53:23;;;;;;;4.40;3.42;;;14.60;99.90;;;;;;5015041;28;20049;-72
2022/06/27 06:55:50;;;;;;;4.53;3.80;;;14.70;99.90;;;;;;5015041;28;20386;-72
2022/06/27 06:58:17;;;;;;;6.85;4.47;;;14.70;99.90;;;;;;5015318;28;20025;-72
2022/06/27 07:00:43;;;;;;;7.05;4.55;;;14.70;99.90;;;;;;5015048;28;20026;-72
2022/06/27 07:03:10;;;;;;;4.20;3.80;;;14.80;99.90;;;;;;5015052;28;20358;-72
2022/06/27 07:05:37;;;;;;;7.38;3.70;;;14.90;99.90;;;;;;5014860;28;20025;-72
2022/06/27 07:08:04;;;;;;;5.18;3.67;;;14.90;99.90;;;;;;5015002;28;20489;-72
2022/06/27 07:10:30;;;;;;;4.13;3.20;;;15.00;99.90;;;;;;5014864;28;20022;-72
2022/06/27 07:12:56;;;;;;;4.75;3.72;;;15.10;99.90;;;;;;5014647;28;20018;-72
2022/06/27 07:15:21;;;;;;;4.03;3.33;;;15.40;99.90;;;;;;5014625;28;20022;-72
2022/06/27 07:17:49;;;;;;;5.25;3.40;;;15.40;99.90;;;;;;5015166;28;20022;-72
2022/06/27 07:20:20;;;;;;;4.32;3.92;;;15.70;99.90;;;;;;5014648;28;20030;-72
2022/06/27 07:22:47;;;;;;;6.05;3.88;;;15.80;99.90;;;;;;5014781;28;20480;-72
2022/06/27 07:25:14;;;;;;;4.15;3.67;;;16.00;99.90;;;;;;5014372;28;20498;-72
2022/06/27 07:27:41;;;;;;;6.53;3.97;;;16.40;99.90;;;;;;5014310;28;20037;-72
2022/06/27 07:30:09;;;;;;;6.80;3.47;;;16.70;99.90;;;;;;5014668;28;20066;-72
2022/06/27 07:32:36;;;;;;;3.00;2.70;;;16.90;99.90;;;;;;5014441;28;20061;-72
2022/06/27 07:35:03;;;;;;;5.15;3.15;;;17.10;99.90;;;;;;5014671;28;20026;-72
2022/06/27 07:37:29;;;;;;;2.90;2.70;;;17.20;99.90;;;;;;5014775;28;20088;-72
2022/06/27 07:39:55;;;;;;;3.20;2.38;;;17.60;99.90;;;;;;5014694;28;20018;-72
2022/06/27 07:42:21;;;;;;;2.63;2.42;;;17.50;99.90;;;;;;5014458;28;20054;-72
2022/06/27 07:44:47;;;;;;;2.88;2.30;;;17.50;99.90;;;;;;5014325;28;20021;-72
2022/06/27 07:47:13;;;;;;;4.50;2.67;;;17.60;99.90;;;;;;5014486;28;20030;-72
2022/06/27 07:49:39;;;;;;;2.92;1.80;;;17.60;99.90;;;;;;5014632;28;20029;-72
2022/06/27 07:52:06;;;;;;;2.20;1.90;;;17.60;99.90;;;;;;5015748;28;20462;-72
2022/06/27 07:54:32;;;;;;;2.90;2.10;;;17.50;99.90;;;;;;5014824;28;20473;-72
2022/06/27 07:56:58;;;;;;;2.15;1.80;;;17.50;99.90;;;;;;5014958;28;20026;-72
2022/06/27 07:59:25;;;;;;;2.45;2.17;;;17.30;99.90;;;;;;5013409;28;20022;-72
2022/06/27 08:01:50;;;;;;;2.55;2.05;;;17.30;99.90;;;;;;5014837;28;20022;-73
2022/06/27 08:04:16;;;;;;;3.22;2.20;;;17.30;99.90;;;;;;5014685;28;20025;-72
2022/06/27 08:06:42;;;;;;;2.45;2.25;;;17.30;99.90;;;;;;5014638;28;20057;-72
2022/06/27 08:09:09;;;;;;;5.97;2.88;;;17.20;99.90;;;;;;5014538;28;20367;-72
2022/06/27 08:11:36;;;;;;;4.07;2.00;;;17.10;99.90;;;;;;5014710;28;20024;-72
2022/06/27 08:14:05;;;;;;;5.93;2.10;;;17.10;99.90;;;;;;5014104;28;20430;-72
2022/06/27 08:16:32;;;;;;;2.50;2.08;;;17.10;99.90;;;;;;5014353;28;20077;-72
2022/06/27 08:18:57;;;;;;;1.90;1.70;;;16.90;99.90;;;;;;5014222;28;20030;-72
2022/06/27 08:21:26;;;;;;;3.35;2.75;;;17.00;99.90;;;;;;5014192;28;20529;-72
2022/06/27 08:23:53;;;;;;;2.65;2.33;;;17.00;99.90;;;;;;5014132;28;20026;-72
2022/06/27 08:26:21;;;;;;;4.10;2.20;;;17.10;99.90;;;;;;5013634;28;20398;-72
2022/06/27 08:28:47;;;;;;;2.70;2.20;;;17.10;99.90;;;;;;5014164;28;20537;-72
2022/06/27 08:31:14;;;;;;;5.13;2.92;;;17.10;99.90;;;;;;5014264;28;20030;-73
2022/06/27 08:33:43;;;;;;;2.85;2.47;;;17.10;99.90;;;;;;5014513;28;20025;-73
2022/06/27 08:36:09;;;;;;;3.92;2.80;;;17.10;99.90;;;;;;5014965;28;20140;-72
2022/06/27 08:38:42;;;;;;;3.35;2.30;;;17.10;99.90;;;;;;5014500;28;20501;-73
2022/06/27 08:41:11;;;;;;;;;;;17.00;99.90;;;;;;5015164;28;20053;-73
2022/06/27 08:43:37;;;;;;;4.43;2.40;;;17.00;99.90;;;;;;5014854;28;19912;-73
2022/06/27 08:46:04;;;;;;;5.30;2.05;;;17.00;99.90;;;;;;5013944;28;20029;-72
2022/06/27 08:48:31;;;;;;;5.47;3.33;;;16.90;99.90;;;;;;5013999;28;20018;-72
2022/06/27 08:50:59;;;;;;;3.70;2.20;;;16.90;99.90;;;;;;4996624;28;20026;-73
2022/06/27 08:53:26;;;;;;;3.45;2.30;;;16.90;99.90;;;;;;5014387;28;20018;-72
2022/06/27 08:55:52;;;;;;;2.53;2.30;;;16.90;99.90;;;;;;5013827;28;20058;-72
2022/06/27 08:58:19;;;;;;;2.53;2.33;;;17.00;99.90;;;;;;5014477;28;20121;-73
2022/06/27 09:00:48;;;;;;;6.95;2.88;;;17.30;99.90;;;;;;5013474;28;20030;-73
2022/06/27 09:03:21;;;;;;;2.45;2.17;;;17.40;99.90;;;;;;5013692;28;20113;-72
2022/06/27 09:05:57;;;;;;;2.20;2.00;;;17.50;99.90;;;;;;4996184;28;20084;-72
2022/06/27 09:08:26;;;;;;;6.68;2.30;;;17.60;99.90;;;;;;5013237;28;20038;-73
2022/06/27 09:10:52;;;;;;;2.92;2.53;;;17.50;99.90;;;;;;5013407;28;20010;-73
2022/06/27 09:13:20;;;;;;;2.70;2.10;;;17.60;99.90;;;;;;4997206;28;20029;-73
2022/06/27 09:15:46;;;;;;;2.70;2.25;;;17.60;99.90;;;;;;5017141;28;20025;-73
2022/06/27 09:18:33;;;;;;;4.47;2.10;;;17.70;99.90;;;;;;5016875;28;20094;-73
2022/06/27 09:21:08;;;;;;;2.92;1.70;;;17.60;99.90;;;;;;5016989;28;20100;-72
2022/06/27 09:23:43;;;;;;;3.25;1.95;;;17.60;99.90;;;;;;4997150;28;20042;-72
2022/06/27 09:26:25;;;;;;;2.13;1.80;;;17.60;99.90;;;;;;4997007;28;20483;-72
2022/06/27 09:28:55;;;;;;;3.72;1.90;;;17.70;99.90;;;;;;4997587;28;20364;-72
2022/06/27 09:31:26;;;;;;;5.15;2.30;;;17.90;99.90;;;;;;4997237;28;20101;-73
2022/06/27 09:34:00;;;;;;;2.80;1.80;;;17.90;99.90;;;;;;4996935;28;20501;-72
2022/06/27 09:36:28;;;;;;;4.90;2.63;;;17.70;99.90;;;;;;4996988;28;20101;-73
2022/06/27 09:38:56;;;;;;;4.40;1.65;;;17.70;99.90;;;;;;5009215;28;20022;-73
2022/06/27 09:41:26;;;;;;;3.95;2.20;;;17.60;99.90;;;;;;5016401;28;20022;-73
2022/06/27 09:43:52;;;;;;;2.40;1.88;;;17.50;99.90;;;;;;5016817;28;20022;-73
2022/06/27 09:46:18;;;;;;;3.65;2.08;;;17.50;99.90;;;;;;5016491;28;20096;-72
2022/06/27 09:48:45;;;;;;;3.08;2.17;;;17.40;99.90;;;;;;5016632;28;20486;-73
2022/06/27 09:51:16;;;;;;;2.58;2.28;;;17.40;99.90;;;;;;5016419;28;20029;-73
2022/06/27 09:53:50;;;;;;;3.45;2.17;;;17.40;99.90;;;;;;5016839;28;20089;-73
2022/06/27 09:56:20;;;;;;;3.40;2.20;;;17.30;99.90;;;;;;5016635;28;20029;-73
2022/06/27 09:58:46;;;;;;;3.40;2.58;;;17.30;99.90;;;;;;5016382;28;20049;-73
2022/06/27 10:01:12;;;;;;;2.30;2.10;;;17.30;99.90;;;;;;4998751;28;20588;-73
2022/06/27 10:03:38;;;;;;;2.47;1.80;;;17.30;99.90;;;;;;5016368;28;20024;-73
2022/06/27 10:06:05;;;;;;;3.22;1.95;;;17.40;99.90;;;;;;5016108;28;20021;-73
2022/06/27 10:08:32;;;;;;;3.33;1.98;;;17.30;99.90;;;;;;5016353;28;20026;-73
2022/06/27 10:11:06;;;;;;;2.80;2.20;;;17.30;99.90;;;;;;5016136;28;20069;-73
2022/06/27 10:13:32;;;;;;;;;;;17.30;99.90;;;;;;5016887;28;20022;-74
2022/06/27 10:16:04;;;;;;;2.78;1.90;;;17.20;99.90;;;;;;5016037;28;19987;-73
2022/06/27 10:18:52;;;;;;;4.07;2.53;;;17.20;99.90;;;;;;5016338;28;20076;-73
2022/06/27 10:21:29;;;;;;;4.07;2.33;;;17.20;99.90;;;;;;5016220;28;20372;-73
2022/06/27 10:24:16;;;;;;;3.67;2.65;;;17.20;99.90;;;;;;5016193;28;20478;-73
2022/06/27 10:26:42;;;;;;;4.78;2.30;;;17.40;99.90;;;;;;5015493;28;20026;-73
2022/06/27 10:29:29;;;;;;;4.63;2.60;;;17.60;99.90;;;;;;5015855;28;20386;-73
2022/06/27 10:31:58;;;;;;;3.42;2.78;;;17.70;99.90;;;;;;5015676;28;20022;-73
2022/06/27 10:34:46;;;;;;;4.32;2.53;;;17.90;99.90;;;;;;5015677;28;20034;-73
2022/06/27 10:37:21;;;;;;;2.83;2.03;;;18.00;99.90;;;;;;5015171;28;20501;-73
2022/06/27 10:39:50;;;;;;;4.57;3.00;;;18.20;99.90;;;;;;5015782;28;20033;-73
2022/06/27 10:42:51;;;;;;;4.72;2.30;;;18.10;99.90;;;;;;4997987;28;20022;-73
2022/06/27 10:45:19;;;;;;;3.38;2.53;;;18.30;99.90;;;;;;5015797;28;20469;-74
2022/06/27 10:47:45;;;;;;;11.65;3.10;;;18.30;99.90;;;;;;5015263;28;20504;-73
2022/06/27 10:50:19;;;;;;;3.72;2.95;;;18.20;99.90;;;;;;5015445;28;20073;-73
2022/06/27 10:52:46;;;;;;;5.25;2.55;;;18.10;99.90;;;;;;5015541;28;20026;-73
2022/06/27 10:55:29;;;;;;;5.88;2.83;;;18.00;99.90;;;;;;5015334;28;20033;-73
2022/06/27 10:57:56;;;;;;;4.88;2.97;;;18.00;99.90;;;;;;5015321;28;20109;-73
2022/06/27 11:00:42;;;;;;;3.67;2.97;;;18.10;99.90;;;;;;5015937;28;20036;-73
2022/06/27 11:03:18;;;;;;;4.53;2.85;;;18.20;99.90;;;;;;5015104;28;20026;-73
2022/06/27 11:06:13;;;;;;;2.88;2.42;;;18.10;99.90;;;;;;5015629;28;20389;-73
2022/06/27 11:08:41;;;;;;;4.53;3.08;;;18.20;99.90;;;;;;5013678;28;20037;-73
2022/06/27 11:11:07;;;;;;;5.57;3.33;;;18.10;99.90;;;;;;5015129;28;20026;-73
2022/06/27 11:13:54;;;;;;;5.00;3.20;;;17.90;99.90;;;;;;5015205;28;20099;-73
2022/06/27 11:16:26;;;;;;;5.35;3.30;;;17.70;99.90;;;;;;5014983;28;20025;-73
2022/06/27 11:18:52;;;;;;;6.07;3.30;;;17.50;99.90;;;;;;5014997;28;20073;-73
2022/06/27 11:21:33;;;;;;;8.18;3.72;;;17.50;99.90;;;;;;5014816;28;20029;-73
2022/06/27 11:24:05;;;;;;;4.28;3.70;;;17.40;99.90;;;;;;5015075;28;20026;-73
2022/06/27 11:26:36;;;;;;;5.53;3.95;;;17.40;99.90;;;;;;5014432;28;20479;-73
2022/06/27 11:31:58;;;;;;;6.80;3.60;;;17.50;99.90;;;;;;5015044;28;20028;-73
2022/06/27 11:34:25;;;;;;;4.70;3.63;;;17.50;99.90;;;;;;5014721;28;20030;-73
2022/06/27 11:36:52;;;;;;;8.35;4.05;;;17.60;99.90;;;;;;5014605;28;20028;-73
2022/06/27 11:39:32;;;;;;;9.38;4.45;;;17.70;99.90;;;;;;5014832;28;20033;-73
2022/06/27 11:42:11;;;;;;;7.93;3.88;;;17.70;99.90;;;;;;5015070;28;20022;-73
2022/06/27 11:44:39;;;;;;;6.80;3.65;;;17.70;99.90;;;;;;5014933;28;20033;-75
2022/06/27 11:47:09;;;;;;;5.75;3.58;;;17.80;99.90;;;;;;5014196;28;20034;-75
2022/06/27 11:49:37;;;;;;;5.25;3.17;;;17.90;99.90;;;;;;5014971;28;20025;-74
2022/06/27 11:52:04;;;;;;;8.00;4.43;;;17.90;99.90;;;;;;5014367;28;20041;-75
2022/06/27 11:54:45;;;;;;;8.40;5.13;;;17.80;99.90;;;;;;4996546;28;20017;-74
2022/06/27 11:57:25;;;;;;;8.25;5.00;;;17.70;99.90;;;;;;4996956;28;20032;-74
2022/06/27 11:59:52;;;;;;;8.98;4.82;;;17.50;99.90;;;;;;5014276;28;20022;-73
2022/06/27 12:02:31;;;;;;;6.47;4.68;;;17.50;99.90;;;;;;5014293;28;20034;-73
2022/06/27 12:05:19;;;;;;;8.45;4.30;;;17.40;99.90;;;;;;5014361;28;20367;-73
2022/06/27 12:07:55;;;;;;;8.43;4.82;;;17.40;99.90;;;;;;5014296;28;20080;-72
2022/06/27 12:10:38;;;;;;;8.85;5.00;;;17.40;99.90;;;;;;5014264;28;20121;-73
2022/06/27 12:13:05;;;;;;;8.30;4.38;;;17.30;99.90;;;;;;5014117;28;20471;-73
2022/06/27 12:15:32;;;;;;;7.20;4.25;;;17.30;99.90;;;;;;5014013;28;20030;-73
2022/06/27 12:17:59;;;;;;;5.38;4.88;;;17.20;99.90;;;;;;5014334;28;20057;-72
2022/06/27 12:20:27;;;;;;;5.75;4.55;;;17.20;99.90;;;;;;5013846;28;20041;-72
2022/06/27 12:22:53;;;;;;;9.18;6.00;;;17.20;99.90;;;;;;5014363;28;20092;-72
2022/06/27 12:25:19;;;;;;;5.18;4.68;;;17.10;99.90;;;;;;5013971;28;20033;-72
2022/06/27 12:27:46;;;;;;;6.82;5.80;;;17.10;99.90;;;;;;5014113;28;20439;-73
2022/06/27 12:30:13;;;;;;;8.40;4.22;;;17.10;99.90;;;;;;5014009;28;20101;-73
2022/06/27 12:32:40;;;;;;;7.25;4.70;;;17.10;99.90;;;;;;5013722;28;20072;-73
2022/06/27 12:35:07;;;;;;;6.28;4.15;;;17.20;99.90;;;;;;5013835;28;20030;-73
2022/06/27 12:37:36;;;;;;;6.10;4.57;;;17.20;99.90;;;;;;5014150;28;20520;-73
2022/06/27 12:40:06;;;;;;;6.20;4.03;;;17.20;99.90;;;;;;5014289;28;20037;-73
2022/06/27 12:42:32;;;;;;;5.60;4.15;;;17.20;99.90;;;;;;5013758;28;20044;-72
2022/06/27 12:44:58;;;;;;;4.25;3.45;;;17.20;99.90;;;;;;5013866;28;20540;-73
2022/06/27 12:47:24;;;;;;;5.45;3.85;;;17.20;99.90;;;;;;5014238;28;20116;-73
2022/06/27 12:49:50;;;;;;;5.57;3.63;;;17.20;99.90;;;;;;5016461;28;20034;-73
2022/06/27 12:52:16;;;;;;;7.85;4.20;;;17.20;99.90;;;;;;5016239;28;20026;-73
2022/06/27 12:54:42;;;;;;;4.20;3.80;;;17.30;99.90;;;;;;5017512;28;20025;-73